createdAt,value
2018-06-03T00:01:54.294Z,5.20
2018-06-03T00:04:24.496Z,3.10
2018-06-03T00:06:53.974Z,2.23
2018-06-03T00:09:24.294Z,2.53
2018-06-03T00:11:55.068Z,1.80
2018-06-03T00:14:24.751Z,2.67
2018-06-03T00:16:54.496Z,2.53
2018-06-03T00:19:24.288Z,1.60
2018-06-03T00:21:54.554Z,1.83
2018-06-03T00:24:25.186Z,2.37
2018-06-03T00:26:55.176Z,1.93
2018-06-03T00:29:24.792Z,2.20
2018-06-03T00:31:54.330Z,2.03
2018-06-03T00:34:24.278Z,1.73
2018-06-03T00:36:53.812Z,2.53
2018-06-03T00:39:23.444Z,1.95
2018-06-03T00:41:54.290Z,1.62
2018-06-03T00:44:23.755Z,1.73
2018-06-03T00:46:53.706Z,1.77
2018-06-03T00:49:25.485Z,5.53
2018-06-03T00:51:55.086Z,1.87
2018-06-03T00:54:25.513Z,3.37
2018-06-03T00:56:55.407Z,1.80
2018-06-03T00:59:24.829Z,2.47
2018-06-03T01:01:55.163Z,3.10
2018-06-03T01:04:25.390Z,2.37
2018-06-03T01:06:55.058Z,3.23
2018-06-03T01:09:24.595Z,1.47
2018-06-03T01:11:55.344Z,2.20
2018-06-03T01:14:25.167Z,2.00
2018-06-03T01:16:55.594Z,3.80
2018-06-03T01:19:25.337Z,2.43
2018-06-03T01:21:54.711Z,2.65
2018-06-03T01:24:24.195Z,3.23
2018-06-03T01:26:54.212Z,3.23
2018-06-03T01:29:23.727Z,3.50
2018-06-03T01:31:54.181Z,2.80
2018-06-03T01:34:24.299Z,2.62
2018-06-03T01:36:56.061Z,3.83
2018-06-03T01:39:25.652Z,2.47
2018-06-03T01:41:55.939Z,4.85
2018-06-03T01:44:25.553Z,3.00
2018-06-03T01:49:43.874Z,2.60
2018-06-03T01:52:14.356Z,1.90
2018-06-03T01:54:44.132Z,2.83
2018-06-03T01:57:13.929Z,3.30
2018-06-03T01:59:44.173Z,3.30
2018-06-03T02:02:28.603Z,3.03
2018-06-03T02:04:59.157Z,4.43
2018-06-03T02:07:29.046Z,3.37
2018-06-03T02:09:58.761Z,2.50
2018-06-03T02:12:28.374Z,3.77
2018-06-03T02:14:59.312Z,2.73
2018-06-03T02:17:29.856Z,3.92
2018-06-03T02:19:59.636Z,2.63
2018-06-03T02:22:46.007Z,2.40
2018-06-03T02:25:15.474Z,4.93
2018-06-03T02:27:45.792Z,3.03
2018-06-03T02:30:16.257Z,3.10
2018-06-03T02:32:45.835Z,3.43
2018-06-03T02:35:15.343Z,2.53
2018-06-03T02:37:46.113Z,3.70
2018-06-03T02:40:15.697Z,6.45
2018-06-03T02:42:49.283Z,1.70
2018-06-03T02:45:18.902Z,3.30
2018-06-03T02:47:49.409Z,3.33
2018-06-03T02:50:18.946Z,2.77
2018-06-03T02:52:50.064Z,2.87
2018-06-03T02:55:20.109Z,3.95
2018-06-03T02:57:50.310Z,5.53
2018-06-03T03:00:19.842Z,4.70
2018-06-03T03:02:50.158Z,4.27
2018-06-03T03:05:19.813Z,6.03
2018-06-03T03:07:50.003Z,4.87
2018-06-03T03:10:20.850Z,3.50
2018-06-03T03:12:50.374Z,5.80
2018-06-03T03:15:21.470Z,7.32
2018-06-03T03:17:52.333Z,3.60
2018-06-03T03:20:21.951Z,3.47
2018-06-03T03:22:51.559Z,4.53
2018-06-03T03:25:21.486Z,2.93
2018-06-03T03:27:51.195Z,2.90
2018-06-03T03:30:58.179Z,4.73
2018-06-03T03:33:34.147Z,2.83
2018-06-03T03:36:07.852Z,4.17
2018-06-03T03:38:41.958Z,4.53
2018-06-03T03:41:15.760Z,3.72
2018-06-03T03:43:53.234Z,4.25
2018-06-03T03:46:28.496Z,2.67
2018-06-03T03:49:05.304Z,1.87
2018-06-03T03:51:39.043Z,2.83
2018-06-03T03:54:13.886Z,2.83
2018-06-03T03:56:47.728Z,4.77
2018-06-03T03:59:21.813Z,3.37
2018-06-03T04:01:59.331Z,1.87
2018-06-03T04:04:33.505Z,3.40
2018-06-03T04:07:08.036Z,4.20
2018-06-03T04:09:42.176Z,3.17
2018-06-03T04:12:18.671Z,4.37
2018-06-03T04:14:52.525Z,3.80
2018-06-03T04:17:27.839Z,4.08
2018-06-03T04:20:00.250Z,3.62
2018-06-03T04:22:34.816Z,3.97
2018-06-03T04:25:08.816Z,5.97
2018-06-03T04:27:43.272Z,5.22
2018-06-03T04:30:16.440Z,2.17
2018-06-03T04:32:50.671Z,3.27
2018-06-03T04:35:26.671Z,3.00
2018-06-03T04:38:02.116Z,4.10
2018-06-03T04:40:36.134Z,3.53
2018-06-03T04:43:10.341Z,1.73
2018-06-03T04:45:44.980Z,2.15
2018-06-03T04:48:18.980Z,4.03
2018-06-03T04:50:51.584Z,3.17
2018-06-03T04:53:27.450Z,6.87
2018-06-03T04:56:33.610Z,4.20
2018-06-03T04:59:08.225Z,5.10
2018-06-03T05:01:42.131Z,3.10
2018-06-03T05:04:16.211Z,2.33
2018-06-03T05:06:50.710Z,2.40
2018-06-03T05:09:26.916Z,3.13
2018-06-03T05:12:02.493Z,4.70
2018-06-03T05:14:36.568Z,2.50
2018-06-03T05:17:10.691Z,2.92
2018-06-03T05:19:45.056Z,3.05
2018-06-03T05:22:18.974Z,3.67
2018-06-03T05:24:55.688Z,2.27
2018-06-03T05:27:29.776Z,3.20
2018-06-03T05:30:04.523Z,2.20
2018-06-03T05:32:38.693Z,2.93
2018-06-03T05:35:14.146Z,2.98
2018-06-03T05:37:48.161Z,4.00
2018-06-03T05:40:22.204Z,3.55
2018-06-03T05:42:56.736Z,3.02
2018-06-03T05:45:30.630Z,3.22
2018-06-03T05:48:05.544Z,2.67
2018-06-03T05:50:39.472Z,4.00
2018-06-03T05:53:13.530Z,3.60
2018-06-03T05:55:48.992Z,4.47
2018-06-03T05:58:25.267Z,2.40
2018-06-03T06:00:58.848Z,3.47
2018-06-03T06:03:36.155Z,2.50
2018-06-03T06:06:10.164Z,2.23
2018-06-03T06:08:42.676Z,2.33
2018-06-03T06:11:16.959Z,2.37
2018-06-03T06:13:51.744Z,5.20
2018-06-03T06:16:25.655Z,2.37
2018-06-03T06:19:00.072Z,3.33
2018-06-03T06:21:32.487Z,2.10
2018-06-03T06:24:08.736Z,2.35
2018-06-03T06:26:45.810Z,5.15
2018-06-03T06:29:21.520Z,2.73
2018-06-03T06:31:56.455Z,2.42
2018-06-03T06:34:31.020Z,2.20
2018-06-03T06:37:06.327Z,3.03
2018-06-03T06:39:40.478Z,2.95
2018-06-03T06:42:19.375Z,2.47
2018-06-03T06:44:54.033Z,2.86
2018-06-03T06:47:29.136Z,4.78
2018-06-03T06:50:02.723Z,3.37
2018-06-03T06:52:39.864Z,1.77
2018-06-03T06:55:16.199Z,1.40
2018-06-03T06:57:50.899Z,1.87
2018-06-03T07:00:29.542Z,2.42
2018-06-03T07:03:05.883Z,2.90
2018-06-03T07:05:41.072Z,3.37
2018-06-03T07:08:15.087Z,3.92
2018-06-03T07:10:48.996Z,2.17
2018-06-03T07:13:22.716Z,1.85
2018-06-03T07:15:58.245Z,4.75
2018-06-03T07:18:30.531Z,1.62
2018-06-03T07:21:03.090Z,2.95
2018-06-03T07:23:41.042Z,2.45
2018-06-03T07:26:14.828Z,2.42
2018-06-03T07:28:49.207Z,1.40
2018-06-03T07:31:23.818Z,2.93
2018-06-03T07:33:58.994Z,3.58
2018-06-03T07:36:33.110Z,1.95
2018-06-03T07:39:08.210Z,2.77
2018-06-03T07:41:41.961Z,1.90
2018-06-03T07:44:17.012Z,2.35
2018-06-03T07:46:52.426Z,1.62
2018-06-03T07:49:24.711Z,2.10
2018-06-03T07:51:59.068Z,1.35
2018-06-03T07:54:33.111Z,2.37
2018-06-03T07:57:08.063Z,2.65
2018-06-03T07:59:42.203Z,2.35
2018-06-03T08:02:16.785Z,2.42
2018-06-03T08:04:51.280Z,2.02
2018-06-03T08:07:25.125Z,2.12
2018-06-03T08:09:59.848Z,2.20
2018-06-03T08:12:34.153Z,2.52
2018-06-03T08:15:08.036Z,1.65
2018-06-03T08:17:42.066Z,2.30
2018-06-03T08:20:16.340Z,3.20
2018-06-03T08:22:50.154Z,3.87
2018-06-03T08:25:24.714Z,2.98
2018-06-03T08:27:58.565Z,2.80
2018-06-03T08:30:32.136Z,3.35
2018-06-03T08:33:06.552Z,2.70
2018-06-03T08:35:40.684Z,1.90
2018-06-03T08:38:15.413Z,3.40
2018-06-03T08:40:50.196Z,2.10
2018-06-03T08:43:24.788Z,3.10
2018-06-03T08:45:59.129Z,2.25
2018-06-03T08:48:33.491Z,1.93
2018-06-03T08:51:07.520Z,1.87
2018-06-03T08:53:40.164Z,2.17
2018-06-03T08:56:16.179Z,1.93
2018-06-03T08:58:50.374Z,2.77
2018-06-03T09:01:23.285Z,2.90
2018-06-03T09:04:02.280Z,2.80
2018-06-03T09:06:39.089Z,1.83
2018-06-03T09:09:17.772Z,3.20
2018-06-03T09:11:52.859Z,2.02
2018-06-03T09:14:26.762Z,1.57
2018-06-03T09:17:08.286Z,1.57
2018-06-03T09:19:42.337Z,2.10
2018-06-03T09:22:19.036Z,2.63
2018-06-03T09:24:53.152Z,2.00
2018-06-03T09:27:29.255Z,3.60
2018-06-03T09:30:03.164Z,2.37
2018-06-03T09:32:37.105Z,2.10
2018-06-03T09:35:11.152Z,3.07
2018-06-03T09:37:45.085Z,1.43
2018-06-03T09:40:19.189Z,1.83
2018-06-03T09:42:53.325Z,2.07
2018-06-03T09:45:27.732Z,2.20
2018-06-03T09:48:00.219Z,1.83
2018-06-03T09:50:34.830Z,4.83
2018-06-03T09:53:08.493Z,2.13
2018-06-03T09:55:42.830Z,3.45
2018-06-03T09:58:17.426Z,5.10
2018-06-03T10:00:51.916Z,3.27
2018-06-03T10:03:25.792Z,2.02
2018-06-03T10:06:00.989Z,3.07
2018-06-03T10:08:34.461Z,3.30
2018-06-03T10:11:09.227Z,3.00
2018-06-03T10:13:43.236Z,3.73
2018-06-03T10:16:17.492Z,2.50
2018-06-03T10:18:52.020Z,3.73
2018-06-03T10:21:27.247Z,3.60
2018-06-03T10:24:01.341Z,4.70
2018-06-03T10:26:35.410Z,4.90
2018-06-03T10:29:09.333Z,3.60
2018-06-03T10:31:43.540Z,2.87
2018-06-03T10:34:17.559Z,3.13
2018-06-03T10:36:51.617Z,2.33
2018-06-03T10:39:25.842Z,3.50
2018-06-03T10:41:59.995Z,3.67
2018-06-03T10:44:34.112Z,9.43
2018-06-03T10:47:08.460Z,4.30
2018-06-03T10:49:42.572Z,3.90
2018-06-03T10:52:16.636Z,4.17
2018-06-03T10:54:50.926Z,2.90
2018-06-03T10:57:25.176Z,2.67
2018-06-03T10:59:57.642Z,1.50
2018-06-03T11:02:31.654Z,2.70
2018-06-03T11:05:05.729Z,1.90
2018-06-03T11:07:40.765Z,2.67
2018-06-03T11:10:14.669Z,1.93
2018-06-03T11:12:48.937Z,2.63
2018-06-03T11:15:22.743Z,2.60
2018-06-03T11:17:55.081Z,2.40
2018-06-03T11:20:28.862Z,2.30
2018-06-03T11:23:02.730Z,2.60
2018-06-03T11:25:36.750Z,2.10
2018-06-03T12:16:56.910Z,2.43
2018-06-03T12:19:31.821Z,4.27
2018-06-03T12:22:05.557Z,7.00
2018-06-03T12:24:40.190Z,8.18
2018-06-03T12:27:14.137Z,7.57
2018-06-03T12:29:49.096Z,6.67
2018-06-03T12:32:23.362Z,6.87
2018-06-03T12:34:57.335Z,6.83
2018-06-03T12:37:31.265Z,9.30
2018-06-03T12:40:05.362Z,4.77
2018-06-03T12:42:39.579Z,5.67
2018-06-03T12:45:13.859Z,6.90
2018-06-03T12:47:47.946Z,6.33
2018-06-03T12:50:21.900Z,5.50
2018-06-03T12:52:55.858Z,4.23
2018-06-03T12:55:30.322Z,5.20
2018-06-03T12:58:02.796Z,4.90
2018-06-03T13:00:36.983Z,2.87
2018-06-03T13:03:11.226Z,3.02
2018-06-03T13:05:46.280Z,3.80
2018-06-03T13:08:20.430Z,2.97
2018-06-03T13:10:53.836Z,3.03
2018-06-03T13:13:27.413Z,4.33
2018-06-03T13:16:01.855Z,2.77
2018-06-03T13:18:36.298Z,3.00
2018-06-03T13:21:11.387Z,3.10
2018-06-03T13:23:45.184Z,2.83
2018-06-03T13:26:19.665Z,3.53
2018-06-03T13:28:53.743Z,2.75
2018-06-03T13:31:27.566Z,2.77
2018-06-03T13:34:01.868Z,1.90
2018-06-03T13:36:35.742Z,3.00
2018-06-03T13:39:10.753Z,2.83
2018-06-03T13:41:46.858Z,3.90
2018-06-03T13:44:22.254Z,3.17
2018-06-03T13:46:57.221Z,3.30
2018-06-03T13:49:32.018Z,3.37
2018-06-03T13:52:05.945Z,4.28
2018-06-03T13:54:40.014Z,3.13
2018-06-03T13:57:13.689Z,2.30
2018-06-03T13:59:47.794Z,3.00
2018-06-03T14:02:21.189Z,4.03
2018-06-03T14:04:53.813Z,2.90
2018-06-03T14:07:28.184Z,5.23
2018-06-03T14:10:02.147Z,4.23
2018-06-03T14:12:36.205Z,4.30
2018-06-03T14:15:10.334Z,7.85
2018-06-03T14:17:44.627Z,9.13
2018-06-03T14:20:18.751Z,4.20
2018-06-03T14:22:53.886Z,5.33
2018-06-03T14:25:27.238Z,7.13
2018-06-03T14:28:01.393Z,4.83
2018-06-03T14:30:36.529Z,4.20
2018-06-03T14:33:08.815Z,5.97
2018-06-03T14:35:43.286Z,4.03
2018-06-03T14:38:17.359Z,6.53
2018-06-03T14:40:51.224Z,4.57
2018-06-03T14:43:23.840Z,6.17
2018-06-03T14:45:57.874Z,5.67
2018-06-03T14:48:31.906Z,4.70
2018-06-03T14:51:06.046Z,6.77
2018-06-03T14:53:39.778Z,6.37
2018-06-03T14:56:13.724Z,4.53
2018-06-03T14:58:47.630Z,7.93
2018-06-03T15:01:19.989Z,5.40
2018-06-03T15:03:55.481Z,6.17
2018-06-03T15:06:29.074Z,5.23
2018-06-03T15:09:02.750Z,4.13
2018-06-03T15:11:37.288Z,5.80
2018-06-03T15:14:11.377Z,3.83
2018-06-03T15:16:46.726Z,5.23
2018-06-03T15:19:19.104Z,4.60
2018-06-03T15:21:53.300Z,5.00
2018-06-03T15:24:28.523Z,6.10
2018-06-03T15:27:03.129Z,4.43
2018-06-03T15:29:36.842Z,4.53
2018-06-03T15:32:10.928Z,5.57
2018-06-03T15:34:45.446Z,2.57
2018-06-03T15:37:19.848Z,5.80
2018-06-03T15:39:53.979Z,4.30
2018-06-03T15:42:29.620Z,4.53
2018-06-03T15:45:03.667Z,4.23
2018-06-03T15:47:37.953Z,4.95
2018-06-03T15:50:11.977Z,5.50
2018-06-03T15:52:45.921Z,8.80
2018-06-03T15:55:20.145Z,4.77
2018-06-03T15:57:54.425Z,5.30
2018-06-03T16:00:28.526Z,3.93
2018-06-03T16:03:02.527Z,4.10
2018-06-03T16:05:37.095Z,4.83
2018-06-03T16:08:10.947Z,2.77
2018-06-03T16:10:45.320Z,2.27
2018-06-03T16:13:19.210Z,2.63
2018-06-03T16:15:53.251Z,3.03
2018-06-03T16:18:27.635Z,2.35
2018-06-03T16:21:02.090Z,3.63
2018-06-03T16:23:36.065Z,2.87
2018-06-03T16:26:11.305Z,5.17
2018-06-03T16:28:45.811Z,2.80
2018-06-03T16:31:19.939Z,4.93
2018-06-03T16:33:54.412Z,4.90
2018-06-03T16:36:28.547Z,2.50
2018-06-03T16:39:02.593Z,4.10
2018-06-03T16:41:36.810Z,4.33
2018-06-03T16:44:11.608Z,3.13
2018-06-03T16:46:45.646Z,2.07
2018-06-03T16:49:19.904Z,1.53
2018-06-03T16:51:54.027Z,1.97
2018-06-03T16:54:27.901Z,2.37
2018-06-03T16:57:01.852Z,2.90
2018-06-03T16:59:35.555Z,2.07
2018-06-03T17:02:09.784Z,2.52
2018-06-03T17:04:44.125Z,1.70
2018-06-03T17:07:18.338Z,1.20
2018-06-03T17:09:52.438Z,2.83
2018-06-03T17:12:26.726Z,2.53
2018-06-03T17:15:00.220Z,1.70
2018-06-03T17:17:32.644Z,2.83
2018-06-03T17:20:06.836Z,2.70
2018-06-03T17:22:40.158Z,2.20
2018-06-03T17:25:14.957Z,2.67
2018-06-03T18:06:51.500Z,3.07
2018-06-03T18:09:25.470Z,1.07
2018-06-03T18:11:59.855Z,1.27
2018-06-03T18:14:33.802Z,1.70
2018-06-03T18:17:07.615Z,1.57
2018-06-03T18:19:40.115Z,2.33
2018-06-03T18:22:14.397Z,1.27
2018-06-03T18:24:46.812Z,1.37
2018-06-03T18:27:21.343Z,1.43
2018-06-03T18:29:56.131Z,3.35
2018-06-03T18:32:30.361Z,2.23
2018-06-03T18:35:04.244Z,2.77
2018-06-03T18:37:38.490Z,2.07
2018-06-03T18:40:12.679Z,1.03
2018-06-03T18:42:46.544Z,2.87
2018-06-03T18:45:20.788Z,3.93
2018-06-03T18:47:55.994Z,1.85
2018-06-03T18:50:30.017Z,3.67
2018-06-03T18:53:04.000Z,1.57
2018-06-03T18:55:37.975Z,2.30
2018-06-03T18:58:11.547Z,2.33
2018-06-03T19:00:45.747Z,1.93
2018-06-03T19:03:19.631Z,2.07
2018-06-03T19:05:53.306Z,2.53
2018-06-03T19:08:26.231Z,2.33
2018-06-03T19:11:00.284Z,1.92
2018-06-03T19:13:32.571Z,2.13
2018-06-03T19:16:07.054Z,2.02
2018-06-03T19:18:40.691Z,1.03
2018-06-03T19:21:14.727Z,3.93
2018-06-03T19:23:48.751Z,2.03
2018-06-03T19:26:22.352Z,2.67
2018-06-03T19:28:56.881Z,1.10
2018-06-03T19:31:31.278Z,1.50
2018-06-03T19:34:05.683Z,2.30
2018-06-03T19:36:42.412Z,3.00
2018-06-03T19:39:16.413Z,2.07
2018-06-03T19:41:50.706Z,1.90
2018-06-03T19:44:25.024Z,3.23
2018-06-03T19:46:59.186Z,2.70
2018-06-03T19:49:33.284Z,2.43
2018-06-03T19:52:07.337Z,3.07
2018-06-03T19:54:41.555Z,1.90
2018-06-03T19:57:15.758Z,1.40
2018-06-03T19:59:49.598Z,1.40
2018-06-03T20:02:23.822Z,4.40
2018-06-03T20:04:58.007Z,1.97
2018-06-03T20:07:32.518Z,2.00
2018-06-03T20:10:04.789Z,1.90
2018-06-03T20:12:38.987Z,1.50
2018-06-03T20:15:13.469Z,2.00
2018-06-03T20:17:47.438Z,1.60
2018-06-03T20:20:19.881Z,2.33
2018-06-03T20:22:55.010Z,2.37
2018-06-03T20:25:29.089Z,1.77
2018-06-03T20:28:03.500Z,2.50
2018-06-03T20:30:36.452Z,1.83
2018-06-03T20:33:11.213Z,2.40
2018-06-03T20:35:45.304Z,4.40
2018-06-03T20:38:19.664Z,3.67
2018-06-03T20:40:53.859Z,2.03
2018-06-03T20:43:28.286Z,2.67
2018-06-03T20:46:02.156Z,3.00
2018-06-03T20:48:36.076Z,2.33
2018-06-03T20:51:10.160Z,2.13
2018-06-03T20:53:44.250Z,2.27
2018-06-03T20:56:18.143Z,3.13
2018-06-03T20:58:51.850Z,3.30
2018-06-03T21:01:26.036Z,3.00
2018-06-03T21:04:00.161Z,4.78
2018-06-03T21:06:34.180Z,4.20
2018-06-03T21:09:10.477Z,3.23
2018-06-03T21:11:44.424Z,3.80
2018-06-03T21:14:19.037Z,3.60
2018-06-03T21:16:53.176Z,2.37
2018-06-03T21:19:27.521Z,3.10
2018-06-03T21:22:01.487Z,2.90
2018-06-03T21:24:35.159Z,4.03
2018-06-03T21:27:09.182Z,2.97
2018-06-03T21:29:43.137Z,3.33
2018-06-03T21:32:17.303Z,4.65
2018-06-03T21:34:51.915Z,3.22
2018-06-03T21:37:25.842Z,2.47
2018-06-03T21:39:59.903Z,4.97
2018-06-03T21:42:33.446Z,9.53
2018-06-03T21:45:07.633Z,4.17
2018-06-03T21:47:42.133Z,3.23
2018-06-03T21:50:16.427Z,3.57
2018-06-03T21:52:50.230Z,3.62
2018-06-03T21:55:25.373Z,2.70
2018-06-03T21:57:59.364Z,2.10
2018-06-03T22:00:33.927Z,3.53
2018-06-03T22:03:06.678Z,3.30
2018-06-03T22:05:42.367Z,2.90
2018-06-03T22:08:17.204Z,3.43
2018-06-03T22:10:49.452Z,4.97
2018-06-03T22:13:23.387Z,3.13
2018-06-03T22:15:58.570Z,4.93
2018-06-03T22:18:32.618Z,4.03
2018-06-03T22:21:06.307Z,3.73
2018-06-03T22:23:40.212Z,5.87
2018-06-03T22:26:15.289Z,4.13
2018-06-03T22:28:47.906Z,4.77
2018-06-03T22:31:23.170Z,5.13
2018-06-03T22:33:57.360Z,4.90
2018-06-03T22:36:32.529Z,4.67
2018-06-03T22:39:07.031Z,5.37
2018-06-03T22:41:41.544Z,5.13
2018-06-03T22:44:15.490Z,4.63
2018-06-03T22:46:49.238Z,4.63
2018-06-03T22:49:32.366Z,5.20
2018-06-03T22:52:07.063Z,4.03
2018-06-03T22:54:40.477Z,4.37
2018-06-03T22:57:50.555Z,5.10
2018-06-03T23:00:34.274Z,5.23
2018-06-03T23:03:12.061Z,4.73
2018-06-03T23:05:46.402Z,4.80
2018-06-03T23:08:21.199Z,4.93
2018-06-03T23:10:56.250Z,4.50
2018-06-03T23:13:30.411Z,5.07
2018-06-03T23:16:04.374Z,8.87
2018-06-03T23:18:38.473Z,7.63
2018-06-03T23:21:12.275Z,9.10
2018-06-03T23:23:44.889Z,7.63
2018-06-03T23:26:18.736Z,7.80
2018-06-03T23:28:52.924Z,6.67
2018-06-03T23:31:27.098Z,6.43
2018-06-03T23:34:01.714Z,5.23
2018-06-03T23:36:35.736Z,5.53
2018-06-03T23:39:09.937Z,4.50
2018-06-03T23:41:44.722Z,7.53
2018-06-03T23:44:18.436Z,5.33
2018-06-03T23:46:52.268Z,4.20
2018-06-03T23:49:25.531Z,3.77
2018-06-03T23:51:59.513Z,5.47
2018-06-03T23:54:33.864Z,4.90
2018-06-03T23:57:10.473Z,3.90
2018-06-03T23:59:44.385Z,5.70
